createdAt,value
2023-05-21T00:02:19.854Z,102016.84
2023-05-21T00:04:46.989Z,102015.31
2023-05-21T00:07:15.210Z,102008.28
2023-05-21T00:09:41.776Z,101995.66
2023-05-21T00:12:09.091Z,102010.72
2023-05-21T00:14:36.015Z,101980.72
2023-05-21T00:17:02.632Z,101980.72
2023-05-21T00:19:29.166Z,102006.69
2023-05-21T00:21:56.030Z,101981.13
2023-05-21T00:24:22.507Z,102003.41
2023-05-21T00:26:48.933Z,102002.28
2023-05-21T00:29:15.352Z,102005.25
2023-05-21T00:31:41.947Z,101996.19
2023-05-21T00:34:08.555Z,102004.16
2023-05-21T00:36:35.035Z,101836.41
2023-05-21T00:39:02.424Z,101994.06
2023-05-21T00:41:30.260Z,102003.88
2023-05-21T00:43:57.212Z,101993.53
2023-05-21T00:46:24.133Z,101980.09
2023-05-21T00:48:51.056Z,101975.09
2023-05-21T00:51:18.677Z,101983.72
2023-05-21T00:53:46.639Z,101978.75
2023-05-21T00:56:13.603Z,101971.75
2023-05-21T00:58:40.979Z,101993.81
2023-05-21T01:01:13.541Z,101958.88
2023-05-21T01:03:41.076Z,101981.50
2023-05-21T01:06:09.427Z,101981.78
2023-05-21T01:08:37.678Z,101982.75
2023-05-21T01:11:05.705Z,101964.47
2023-05-21T01:13:34.622Z,101981.78
2023-05-21T01:16:02.938Z,101974.66
2023-05-21T01:18:29.855Z,101973.81
2023-05-21T01:20:56.362Z,101961.13
2023-05-21T01:23:22.917Z,101962.25
2023-05-21T01:25:49.512Z,101946.00
2023-05-21T01:28:15.985Z,101950.91
2023-05-21T01:30:43.853Z,101961.25
2023-05-21T01:33:24.290Z,101956.78
2023-05-21T01:35:56.328Z,101960.72
2023-05-21T01:39:05.091Z,101965.72
2023-05-21T01:41:36.968Z,101957.63
2023-05-21T01:44:07.020Z,101946.88
2023-05-21T01:46:36.163Z,101969.53
2023-05-21T01:49:04.949Z,101970.38
2023-05-21T01:51:32.008Z,101960.59
2023-05-21T01:53:58.567Z,101966.88
2023-05-21T01:56:25.808Z,101947.50
2023-05-21T01:58:52.688Z,101941.03
2023-05-21T02:01:20.260Z,101924.75
2023-05-21T02:03:46.844Z,101951.91
2023-05-21T02:06:13.310Z,101956.41
2023-05-21T02:08:40.323Z,101953.63
2023-05-21T02:11:06.924Z,101945.53
2023-05-21T02:13:33.821Z,101955.31
2023-05-21T02:16:01.537Z,101954.19
2023-05-21T02:18:29.246Z,101959.22
2023-05-21T02:20:55.844Z,101957.53
2023-05-21T02:23:22.312Z,101956.69
2023-05-21T02:25:48.899Z,101962.84
2023-05-21T02:28:15.874Z,101964.13
2023-05-21T02:30:42.338Z,101956.16
2023-05-21T02:33:09.210Z,101945.69
2023-05-21T02:35:36.042Z,101957.28
2023-05-21T02:38:03.060Z,101958.41
2023-05-21T02:40:29.575Z,101958.69
2023-05-21T02:42:56.043Z,101950.03
2023-05-21T02:45:22.476Z,101951.16
2023-05-21T02:47:49.083Z,101910.81
2023-05-21T02:50:15.620Z,101959.38
2023-05-21T02:52:42.221Z,101937.63
2023-05-21T02:55:09.596Z,101959.81
2023-05-21T02:57:36.006Z,101957.16
2023-05-21T03:00:03.723Z,101957.16
2023-05-21T03:02:30.327Z,101935.25
2023-05-21T03:04:56.854Z,101956.75
2023-05-21T03:07:24.363Z,101952.56
2023-05-21T03:09:50.858Z,101956.91
2023-05-21T03:12:17.370Z,101952.16
2023-05-21T03:14:44.248Z,101948.53
2023-05-21T03:17:13.936Z,101953.97
2023-05-21T03:19:41.776Z,101944.50
2023-05-21T03:22:08.889Z,101943.78
2023-05-21T03:24:36.694Z,101921.75
2023-05-21T03:27:05.930Z,101942.25
2023-05-21T03:29:32.628Z,101936.41
2023-05-21T03:31:59.360Z,101925.91
2023-05-21T03:34:25.817Z,101936.94
2023-05-21T03:36:52.322Z,101935.28
2023-05-21T03:39:18.921Z,101939.59
2023-05-21T03:41:45.415Z,101931.38
2023-05-21T03:44:11.971Z,101943.81
2023-05-21T03:46:38.512Z,101933.34
2023-05-21T03:49:05.037Z,101933.34
2023-05-21T03:51:31.745Z,101918.84
2023-05-21T03:53:59.256Z,101933.50
2023-05-21T03:56:26.292Z,101931.25
2023-05-21T03:58:53.062Z,101926.78
2023-05-21T04:01:19.707Z,101932.25
2023-05-21T04:03:46.370Z,101927.91
2023-05-21T04:06:12.923Z,101925.69
2023-05-21T04:08:39.672Z,101931.41
2023-05-21T04:11:06.097Z,101920.53
2023-05-21T04:13:32.736Z,101936.72
2023-05-21T04:15:59.753Z,101928.94
2023-05-21T04:18:26.773Z,101930.31
2023-05-21T04:20:53.820Z,101930.47
2023-05-21T04:23:23.370Z,101933.81
2023-05-21T04:25:50.794Z,101921.41
2023-05-21T04:28:20.492Z,101928.38
2023-05-21T04:30:49.983Z,101927.09
2023-05-21T04:33:20.150Z,101933.25
2023-05-21T04:35:50.121Z,101934.38
2023-05-21T04:38:19.578Z,101920.84
2023-05-21T04:40:52.302Z,101932.72
2023-05-21T04:43:25.561Z,101937.19
2023-05-21T04:45:54.692Z,101938.16
2023-05-21T04:48:24.687Z,101941.81
2023-05-21T04:50:52.079Z,101944.31
2023-05-21T04:53:18.550Z,101941.50
2023-05-21T04:55:45.060Z,101943.63
2023-05-21T04:58:11.561Z,101923.34
2023-05-21T05:00:39.241Z,101942.34
2023-05-21T05:03:05.816Z,101941.38
2023-05-21T05:05:32.318Z,101940.94
2023-05-21T05:07:58.776Z,101938.72
2023-05-21T05:10:25.204Z,101917.63
2023-05-21T05:12:51.625Z,101949.06
2023-05-21T05:15:18.106Z,101941.78
2023-05-21T05:17:44.750Z,101942.47
2023-05-21T05:20:11.598Z,101938.69
2023-05-21T05:22:38.129Z,101946.25
2023-05-21T05:25:05.306Z,101918.03
2023-05-21T05:27:31.740Z,101940.00
2023-05-21T05:29:58.169Z,101931.47
2023-05-21T05:32:24.714Z,101934.81
2023-05-21T05:34:51.379Z,101942.66
2023-05-21T05:37:17.932Z,101930.50
2023-05-21T05:39:44.365Z,101942.22
2023-05-21T05:42:10.815Z,101942.06
2023-05-21T05:44:37.304Z,101916.66
2023-05-21T05:47:03.927Z,101927.25
2023-05-21T05:49:30.394Z,101935.19
2023-05-21T05:51:56.844Z,101933.50
2023-05-21T05:54:23.267Z,101926.94
2023-05-21T05:56:49.707Z,101932.78
2023-05-21T05:59:16.444Z,101930.84
2023-05-21T06:01:42.864Z,101932.78
2023-05-21T06:04:09.330Z,101930.84
2023-05-21T06:06:36.735Z,101916.31
2023-05-21T06:09:03.265Z,101921.59
2023-05-21T06:11:29.699Z,101906.78
2023-05-21T06:13:56.709Z,101921.72
2023-05-21T06:16:23.254Z,101925.91
2023-05-21T06:18:49.758Z,101921.56
2023-05-21T06:21:16.479Z,101914.44
2023-05-21T06:23:42.924Z,101901.88
2023-05-21T06:26:09.370Z,101911.50
2023-05-21T06:28:36.270Z,101918.59
2023-05-21T06:31:02.766Z,101908.47
2023-05-21T06:33:29.347Z,101911.25
2023-05-21T06:35:55.879Z,101922.13
2023-05-21T06:38:22.367Z,101918.44
2023-05-21T06:40:49.486Z,101895.94
2023-05-21T06:43:16.024Z,101922.59
2023-05-21T06:45:42.509Z,101921.00
2023-05-21T06:48:09.146Z,101888.19
2023-05-21T06:50:35.690Z,101933.56
2023-05-21T06:53:02.176Z,101918.13
2023-05-21T06:55:28.672Z,101921.50
2023-05-21T06:57:55.094Z,101917.25
2023-05-21T07:00:21.775Z,101920.81
2023-05-21T07:02:48.291Z,101918.63
2023-05-21T07:05:14.760Z,101919.22
2023-05-21T07:07:41.187Z,101912.47
2023-05-21T07:10:08.450Z,101908.50
2023-05-21T07:12:35.000Z,101916.63
2023-05-21T07:15:01.479Z,101910.19
2023-05-21T07:17:27.943Z,101908.50
2023-05-21T07:19:54.405Z,101903.84
2023-05-21T07:22:20.994Z,101898.03
2023-05-21T07:24:47.473Z,101905.47
2023-05-21T07:27:24.803Z,101911.56
2023-05-21T07:29:52.504Z,101920.63
2023-05-21T07:32:18.952Z,101920.94
2023-05-21T07:34:45.380Z,101914.63
2023-05-21T07:37:11.817Z,101911.09
2023-05-21T07:39:38.254Z,101904.44
2023-05-21T07:42:04.908Z,101904.59
2023-05-21T07:44:31.939Z,101903.81
2023-05-21T07:46:58.378Z,101904.88
2023-05-21T07:49:24.814Z,101904.75
2023-05-21T07:51:51.266Z,101902.47
2023-05-21T07:54:18.207Z,101900.34
2023-05-21T07:56:44.633Z,101902.53
2023-05-21T07:59:13.323Z,101906.88
2023-05-21T08:01:41.055Z,101863.16
2023-05-21T08:04:07.891Z,101905.47
2023-05-21T08:06:34.668Z,101907.00
2023-05-21T08:09:04.655Z,101905.34
2023-05-21T08:11:31.080Z,101829.53
2023-05-21T08:13:57.542Z,101882.09
2023-05-21T08:16:24.208Z,101892.44
2023-05-21T08:18:50.894Z,101895.59
2023-05-21T08:21:17.448Z,101890.44
2023-05-21T08:23:44.408Z,101887.28
2023-05-21T08:26:11.057Z,101875.09
2023-05-21T08:28:40.501Z,101893.50
2023-05-21T08:31:06.997Z,101870.16
2023-05-21T08:33:37.142Z,101870.78
2023-05-21T08:36:07.911Z,101881.16
2023-05-21T08:38:34.618Z,101894.16
2023-05-21T08:41:01.209Z,101887.97
2023-05-21T08:43:28.648Z,101902.84
2023-05-21T08:45:57.274Z,101894.34
2023-05-21T08:48:24.254Z,101891.81
2023-05-21T08:50:52.446Z,101873.13
2023-05-21T08:53:27.294Z,101885.66
2023-05-21T08:55:56.118Z,101894.00
2023-05-21T08:58:23.136Z,101883.81
2023-05-21T09:00:49.865Z,101892.84
2023-05-21T09:03:16.728Z,101865.47
2023-05-21T09:05:45.081Z,101882.00
2023-05-21T09:08:18.354Z,101894.19
2023-05-21T09:10:52.276Z,101896.19
2023-05-21T09:13:20.190Z,101894.22
2023-05-21T09:15:47.842Z,101878.19
2023-05-21T09:18:14.897Z,101856.97
2023-05-21T09:20:41.604Z,101870.34
2023-05-21T09:23:17.038Z,101872.16
2023-05-21T09:25:47.985Z,101888.88
2023-05-21T09:28:16.104Z,101870.63
2023-05-21T09:30:52.219Z,101896.03
2023-05-21T09:33:26.606Z,101877.16
2023-05-21T09:35:53.195Z,101852.97
2023-05-21T09:38:22.967Z,101882.19
2023-05-21T09:40:49.456Z,101887.34
2023-05-21T09:43:16.378Z,101875.00
2023-05-21T09:45:53.703Z,101874.31
2023-05-21T09:48:40.779Z,101865.13
2023-05-21T09:51:18.045Z,101872.47
2023-05-21T09:53:54.662Z,101866.75
2023-05-21T09:56:23.594Z,101840.72
2023-05-21T09:59:00.279Z,101859.91
2023-05-21T10:01:27.419Z,101864.97
2023-05-21T10:03:58.589Z,101856.78
2023-05-21T10:06:28.365Z,101831.41
2023-05-21T10:08:57.070Z,101847.91
2023-05-21T10:11:27.226Z,101851.41
2023-05-21T10:14:10.489Z,101851.56
2023-05-21T10:16:37.467Z,101853.44
2023-05-21T10:19:10.924Z,101809.56
2023-05-21T10:21:39.713Z,101840.91
2023-05-21T10:24:07.394Z,101820.50
2023-05-21T10:26:34.507Z,101863.72
2023-05-21T10:29:02.686Z,101839.00
2023-05-21T10:31:29.603Z,101853.56
2023-05-21T10:33:56.250Z,101830.03
2023-05-21T10:36:24.639Z,101833.47
2023-05-21T10:38:51.460Z,101849.94
2023-05-21T10:41:20.011Z,101793.19
2023-05-21T10:43:59.320Z,101838.66
2023-05-21T10:46:47.171Z,101838.09
2023-05-21T10:49:38.482Z,101783.88
2023-05-21T10:52:51.418Z,101816.97
2023-05-21T10:55:36.488Z,101806.06
2023-05-21T10:58:14.948Z,101838.16
2023-05-21T11:00:42.753Z,101837.31
2023-05-21T11:03:12.882Z,101839.16
2023-05-21T11:05:52.697Z,101827.44
2023-05-21T11:08:27.445Z,101830.97
2023-05-21T11:10:55.367Z,101830.38
2023-05-21T11:13:22.061Z,101823.47
2023-05-21T11:15:57.739Z,101816.75
2023-05-21T11:18:47.113Z,101819.41
2023-05-21T11:21:14.988Z,101821.75
2023-05-21T11:23:50.872Z,101826.00
2023-05-21T11:26:26.367Z,101819.03
2023-05-21T11:29:05.046Z,101816.06
2023-05-21T11:31:39.578Z,101803.03
2023-05-21T11:34:12.425Z,101811.50
2023-05-21T11:36:45.588Z,101800.97
2023-05-21T11:39:15.705Z,101797.66
2023-05-21T11:41:52.440Z,101794.06
2023-05-21T11:44:21.614Z,101773.25
2023-05-21T11:46:48.841Z,101797.66
2023-05-21T11:49:16.025Z,101779.53
2023-05-21T11:51:42.933Z,101801.91
2023-05-21T11:54:10.320Z,101778.88
2023-05-21T11:56:41.767Z,101800.88
2023-05-21T11:59:15.499Z,101781.94
2023-05-21T12:01:44.181Z,101796.06
2023-05-21T12:04:12.179Z,101763.88
2023-05-21T12:06:42.547Z,101780.75
2023-05-21T12:09:10.311Z,101730.03
2023-05-21T12:11:41.126Z,101763.09
2023-05-21T12:14:09.430Z,101738.56
2023-05-21T12:16:36.312Z,101760.13
2023-05-21T12:19:03.927Z,101772.72
2023-05-21T12:21:31.429Z,101763.44
2023-05-21T12:23:58.319Z,101782.13
2023-05-21T12:26:25.831Z,101760.28
2023-05-21T12:28:56.102Z,101751.97
2023-05-21T12:31:23.580Z,101735.50
2023-05-21T12:33:53.685Z,101747.06
2023-05-21T12:36:26.859Z,101752.19
2023-05-21T12:38:53.667Z,101742.81
2023-05-21T12:41:22.081Z,101745.25
2023-05-21T12:43:49.312Z,101731.81
2023-05-21T12:46:19.767Z,101713.28
2023-05-21T12:48:58.233Z,101755.22
2023-05-21T12:51:24.829Z,101730.97
2023-05-21T12:53:51.552Z,101766.31
2023-05-21T12:56:18.056Z,101688.91
2023-05-21T12:58:50.233Z,101744.75
2023-05-21T13:01:16.709Z,101761.53
2023-05-21T13:03:44.126Z,101742.97
2023-05-21T13:06:10.787Z,101744.31
2023-05-21T13:08:37.756Z,101730.91
2023-05-21T13:11:04.820Z,101711.31
2023-05-21T13:13:31.540Z,101739.97
2023-05-21T13:16:00.561Z,101734.53
2023-05-21T13:18:27.138Z,101709.53
2023-05-21T13:20:53.788Z,101693.38
2023-05-21T13:23:20.495Z,101742.22
2023-05-21T13:25:46.917Z,101712.25
2023-05-21T13:28:15.277Z,101710.66
2023-05-21T13:30:41.772Z,101741.94
2023-05-21T13:33:08.553Z,101741.94
2023-05-21T13:35:35.284Z,101746.50
2023-05-21T13:38:02.101Z,101739.03
2023-05-21T13:40:28.574Z,101745.88
2023-05-21T13:42:55.068Z,101735.88
2023-05-21T13:45:21.757Z,101709.44
2023-05-21T13:47:48.450Z,101715.59
2023-05-21T13:50:16.028Z,101731.19
2023-05-21T13:52:42.764Z,101720.63
2023-05-21T13:55:09.961Z,101724.97
2023-05-21T13:57:36.478Z,101735.50
2023-05-21T14:00:04.655Z,101727.44
2023-05-21T14:02:31.150Z,101718.06
2023-05-21T14:04:57.677Z,101725.13
2023-05-21T14:07:24.144Z,101729.41
2023-05-21T14:09:50.602Z,101723.78
2023-05-21T14:12:17.210Z,101685.22
2023-05-21T14:14:43.961Z,101701.59
2023-05-21T14:17:10.493Z,101741.34
2023-05-21T14:19:36.956Z,101722.97
2023-05-21T14:22:03.449Z,101726.19
2023-05-21T14:24:29.901Z,101724.50
2023-05-21T14:26:56.393Z,101733.19
2023-05-21T14:29:22.878Z,101733.00
2023-05-21T14:31:49.454Z,101715.97
2023-05-21T14:34:15.956Z,101720.63
2023-05-21T14:36:42.386Z,101701.53
2023-05-21T14:39:08.806Z,101728.25
2023-05-21T14:41:39.526Z,101737.63
2023-05-21T14:44:05.975Z,101690.75
2023-05-21T14:46:32.889Z,101737.53
2023-05-21T14:49:00.529Z,101732.56
2023-05-21T14:51:27.073Z,101727.16
2023-05-21T14:53:53.611Z,101712.81
2023-05-21T14:56:21.877Z,101707.22
2023-05-21T14:58:48.450Z,101712.00
2023-05-21T15:01:15.062Z,101698.03
2023-05-21T15:03:41.691Z,101692.34
2023-05-21T15:06:08.458Z,101689.66
2023-05-21T15:08:34.964Z,101708.44
2023-05-21T15:11:01.538Z,101655.53
2023-05-21T15:13:27.954Z,101712.03
2023-05-21T15:15:54.517Z,101691.06
2023-05-21T15:18:21.003Z,101681.09
2023-05-21T15:20:47.514Z,101667.94
2023-05-21T15:23:17.477Z,101682.00
2023-05-21T15:25:45.065Z,101670.22
2023-05-21T15:28:14.530Z,101691.56
2023-05-21T15:30:40.954Z,101686.63
2023-05-21T15:33:07.513Z,101675.59
2023-05-21T15:35:36.359Z,101689.47
2023-05-21T15:38:03.316Z,101677.88
2023-05-21T15:40:29.770Z,101682.09
2023-05-21T15:42:56.262Z,101681.09
2023-05-21T15:45:22.725Z,101677.06
2023-05-21T15:47:49.193Z,101680.25
2023-05-21T15:50:15.793Z,101674.31
2023-05-21T15:52:42.699Z,101630.03
2023-05-21T15:55:09.644Z,101663.34
2023-05-21T15:57:36.112Z,101678.47
2023-05-21T16:00:02.650Z,101662.91
2023-05-21T16:02:29.143Z,101678.78
2023-05-21T16:04:55.654Z,101657.97
2023-05-21T16:07:23.502Z,101646.75
2023-05-21T16:09:50.056Z,101647.06
2023-05-21T16:12:16.659Z,101670.78
2023-05-21T16:14:43.150Z,101645.13
2023-05-21T16:17:09.736Z,101657.28
2023-05-21T16:19:36.473Z,101666.19
2023-05-21T16:22:03.030Z,101667.38
2023-05-21T16:24:29.505Z,101652.97
2023-05-21T16:26:56.015Z,101636.56
2023-05-21T16:29:22.485Z,101663.75
2023-05-21T16:31:49.068Z,101642.63
2023-05-21T16:34:15.788Z,101636.22
2023-05-21T16:36:42.266Z,101677.31
2023-05-21T16:39:08.772Z,101667.94
2023-05-21T16:41:35.476Z,101633.44
2023-05-21T16:44:01.988Z,101611.19
2023-05-21T16:46:28.496Z,101664.66
2023-05-21T16:48:54.997Z,101641.09
2023-05-21T16:51:21.477Z,101635.47
2023-05-21T16:53:48.151Z,101662.28
2023-05-21T16:56:14.599Z,101653.47
2023-05-21T16:58:41.038Z,101645.31
2023-05-21T17:01:07.530Z,101640.88
2023-05-21T17:03:34.192Z,101664.22
2023-05-21T17:06:00.901Z,101670.47
2023-05-21T17:08:27.362Z,101656.13
2023-05-21T17:10:55.420Z,101608.59
2023-05-21T17:13:23.027Z,101635.09
2023-05-21T17:15:51.160Z,101621.09
2023-05-21T17:18:17.999Z,101652.03
2023-05-21T17:20:44.782Z,101663.56
2023-05-21T17:23:12.434Z,101611.84
2023-05-21T17:25:39.737Z,101604.06
2023-05-21T17:28:06.854Z,101678.44
2023-05-21T17:30:33.445Z,101675.59
2023-05-21T17:33:02.173Z,101661.63
2023-05-21T17:35:28.912Z,101665.44
2023-05-21T17:37:55.389Z,101668.81
2023-05-21T17:40:24.277Z,101655.97
2023-05-21T17:42:51.895Z,101667.75
2023-05-21T17:45:18.611Z,101672.66
2023-05-21T17:47:45.072Z,101650.03
2023-05-21T17:50:11.510Z,101655.38
2023-05-21T17:52:37.972Z,101629.53
2023-05-21T17:55:05.192Z,101608.16
2023-05-21T17:57:31.639Z,101642.47
2023-05-21T17:59:58.128Z,101655.94
2023-05-21T18:02:25.387Z,101664.53
2023-05-21T18:04:51.888Z,101654.75
2023-05-21T18:07:18.293Z,101663.88
2023-05-21T18:09:45.077Z,101641.94
2023-05-21T18:12:11.605Z,101654.81
2023-05-21T18:14:38.086Z,101670.03
2023-05-21T18:17:05.752Z,101664.88
2023-05-21T18:19:32.343Z,101669.38
2023-05-21T18:21:58.826Z,101635.63
2023-05-21T18:24:25.603Z,101664.16
2023-05-21T18:26:52.154Z,101658.63
2023-05-21T18:29:18.638Z,101669.81
2023-05-21T18:31:45.481Z,101648.16
2023-05-21T18:34:12.212Z,101651.88
2023-05-21T18:36:38.725Z,101667.53
2023-05-21T18:39:06.810Z,101681.28
2023-05-21T18:41:33.535Z,101672.31
2023-05-21T18:44:01.684Z,101595.38
2023-05-21T18:46:28.975Z,101677.50
2023-05-21T18:48:56.050Z,101658.75
2023-05-21T18:51:22.685Z,101642.44
2023-05-21T18:53:49.140Z,101650.25
2023-05-21T18:56:15.684Z,101668.19
2023-05-21T18:58:42.128Z,101563.16
2023-05-21T19:01:08.632Z,101665.81
2023-05-21T19:03:35.043Z,101669.13
2023-05-21T19:06:01.706Z,101631.44
2023-05-21T19:08:28.133Z,101665.63
2023-05-21T19:10:54.625Z,101669.78
2023-05-21T19:13:21.242Z,101659.97
2023-05-21T19:15:48.944Z,101641.94
2023-05-21T19:18:17.280Z,101658.78
2023-05-21T19:20:43.804Z,101667.75
2023-05-21T19:23:10.483Z,101643.78
2023-05-21T19:25:36.924Z,101625.50
2023-05-21T19:28:03.439Z,101640.88
2023-05-21T19:30:29.916Z,101648.75
2023-05-21T19:32:56.448Z,101637.59
2023-05-21T19:35:22.967Z,101675.06
2023-05-21T19:37:49.895Z,101642.41
2023-05-21T19:40:17.645Z,101670.59
2023-05-21T19:42:44.760Z,101675.28
2023-05-21T19:45:11.803Z,101683.47
2023-05-21T19:47:41.038Z,101616.66
2023-05-21T19:50:08.194Z,101680.81
2023-05-21T19:52:34.652Z,101682.16
2023-05-21T19:55:04.794Z,101647.81
2023-05-21T19:57:32.561Z,101653.66
2023-05-21T19:59:59.130Z,101696.16
2023-05-21T20:02:26.580Z,101691.66
2023-05-21T20:04:56.703Z,101690.31
2023-05-21T20:07:23.787Z,101698.69
2023-05-21T20:09:50.624Z,101678.50
2023-05-21T20:12:17.056Z,101650.81
2023-05-21T20:14:46.694Z,101678.00
2023-05-21T20:17:14.305Z,101698.31
2023-05-21T20:19:41.062Z,101653.13
2023-05-21T20:22:07.551Z,101685.97
2023-05-21T20:24:34.057Z,101700.00
2023-05-21T20:27:01.687Z,101679.63
2023-05-21T20:29:28.808Z,101590.13
2023-05-21T20:31:55.458Z,101668.78
2023-05-21T20:34:21.972Z,101674.47
2023-05-21T20:36:49.166Z,101668.63
2023-05-21T20:39:15.706Z,101647.63
2023-05-21T20:41:44.772Z,101639.78
2023-05-21T20:44:11.917Z,101689.63
2023-05-21T20:46:41.152Z,101667.28
2023-05-21T20:49:07.721Z,101684.13
2023-05-21T20:51:34.199Z,101665.25
2023-05-21T20:54:00.924Z,101673.59
2023-05-21T20:56:40.902Z,101656.72
2023-05-21T20:59:10.910Z,101655.91
2023-05-21T21:01:38.429Z,101661.88
2023-05-21T21:04:05.267Z,101654.06
2023-05-21T21:06:31.977Z,101675.72
2023-05-21T21:08:58.734Z,101645.72
2023-05-21T21:11:25.244Z,101629.56
2023-05-21T21:13:51.906Z,101674.88
2023-05-21T21:16:18.655Z,101675.88
2023-05-21T21:18:46.922Z,101669.16
2023-05-21T21:21:13.769Z,101678.00
2023-05-21T21:23:40.269Z,101673.16
2023-05-21T21:26:07.160Z,101674.66
2023-05-21T21:28:33.947Z,101681.16
2023-05-21T21:31:00.686Z,101645.75
2023-05-21T21:33:28.358Z,101650.41
2023-05-21T21:35:55.010Z,101653.44
2023-05-21T21:38:21.664Z,101646.91
2023-05-21T21:40:48.209Z,101669.63
2023-05-21T21:43:14.708Z,101651.56
2023-05-21T21:45:41.233Z,101618.88
2023-05-21T21:48:07.805Z,101663.22
2023-05-21T21:50:34.366Z,101673.88
2023-05-21T21:53:01.206Z,101660.03
2023-05-21T21:55:27.783Z,101642.97
2023-05-21T21:57:54.243Z,101673.66
2023-05-21T22:00:20.988Z,101671.97
2023-05-21T22:02:47.539Z,101657.78
2023-05-21T22:05:17.022Z,101665.88
2023-05-21T22:07:47.125Z,101679.19
2023-05-21T22:10:17.260Z,101669.34
2023-05-21T22:12:44.690Z,101668.38
2023-05-21T22:15:18.453Z,101665.66
2023-05-21T22:17:45.313Z,101630.41
2023-05-21T22:20:11.895Z,101656.59
2023-05-21T22:22:38.336Z,101636.78
2023-05-21T22:25:05.166Z,101651.13
2023-05-21T22:27:31.595Z,101636.78
2023-05-21T22:29:58.016Z,101630.94
2023-05-21T22:32:24.536Z,101647.06
2023-05-21T22:34:50.993Z,101610.47
2023-05-21T22:37:17.838Z,101665.88
2023-05-21T22:39:44.341Z,101641.72
2023-05-21T22:42:11.086Z,101636.41
2023-05-21T22:44:37.562Z,101651.44
2023-05-21T22:47:04.212Z,101659.56
2023-05-21T22:49:32.611Z,101604.09
2023-05-21T22:52:06.239Z,101599.38
2023-05-21T22:54:32.981Z,101649.66
2023-05-21T22:57:01.093Z,101598.03
2023-05-21T22:59:32.387Z,101560.78
2023-05-21T23:01:59.137Z,101655.31
2023-05-21T23:04:42.797Z,101630.53
2023-05-21T23:07:10.246Z,101648.53
2023-05-21T23:09:36.717Z,101646.84
2023-05-21T23:12:03.479Z,101626.50
2023-05-21T23:14:29.934Z,101631.16
2023-05-21T23:17:01.911Z,101633.56
2023-05-21T23:19:29.495Z,101631.88
2023-05-21T23:21:56.376Z,101625.03
2023-05-21T23:24:23.194Z,101627.25
2023-05-21T23:26:49.823Z,101588.56
2023-05-21T23:29:16.452Z,101605.53
2023-05-21T23:31:43.674Z,101592.94
2023-05-21T23:34:10.301Z,101631.81
2023-05-21T23:36:36.752Z,101602.03
2023-05-21T23:39:03.558Z,101644.00
2023-05-21T23:41:30.145Z,101632.31
2023-05-21T23:43:56.620Z,101679.06
2023-05-21T23:46:23.281Z,101660.69
2023-05-21T23:48:49.853Z,101610.75
2023-05-21T23:51:18.265Z,101611.41
2023-05-21T23:53:45.165Z,101609.59
2023-05-21T23:56:11.589Z,101602.69
2023-05-21T23:58:38.030Z,101652.31
